Time;durP1;ratioP1;P1;durP2;ratioP2;P2;SDS_P1;SDS_P2;PMS_P1;PMS_P2;Temp;Humidity;BMP_temperature;BMP_pressure;BME280_temperature;BME280_humidity;BME280_pressure;Samples;Min_cycle;Max_cycle;Signal;HPM_P1;HPM_P2
2022/12/04 00:02:10;;;;;;;;;;;0.40;99.90;;;;;;5066307;28;19931;-74
2022/12/04 00:04:36;;;;;;;;;;;0.30;99.90;;;;;;5064466;28;19921;-75
2022/12/04 00:07:01;;;;;;;;;;;0.30;99.90;;;;;;5064201;28;19928;-74
2022/12/04 00:09:30;;;;;;;;;;;0.30;99.90;;;;;;5062756;28;19921;-74
2022/12/04 00:11:55;;;;;;;;;;;0.30;99.90;;;;;;5062053;28;20428;-75
2022/12/04 00:14:21;;;;;;;;;;;0.30;99.90;;;;;;5065341;28;20007;-75
2022/12/04 00:16:46;;;;;;;;;;;0.20;99.90;;;;;;5062900;28;19921;-75
2022/12/04 00:19:12;;;;;;;;;;;0.30;99.90;;;;;;5065299;28;19920;-75
2022/12/04 00:21:37;;;;;;;;;;;0.30;99.90;;;;;;5081111;28;19920;-75
2022/12/04 00:24:03;;;;;;;;;;;0.30;99.90;;;;;;5062701;28;19974;-76
2022/12/04 00:26:30;;;;;;;;;;;0.40;99.90;;;;;;5059446;28;19963;-75
2022/12/04 00:28:55;;;;;;;;;;;0.50;99.90;;;;;;5062756;28;19940;-75
2022/12/04 00:31:23;;;;;;;;;;;0.50;99.90;;;;;;5060452;28;19944;-74
2022/12/04 00:33:48;;;;;;;;;;;0.60;99.90;;;;;;5063400;28;19929;-74
2022/12/04 00:36:18;;;;;;;;;;;0.60;99.90;;;;;;5062929;28;19920;-74
2022/12/04 00:38:43;;;;;;;;;;;2.30;99.90;;;;;;5065024;28;19921;-74
2022/12/04 00:41:10;;;;;;;;;;;0.60;99.90;;;;;;5062559;28;19982;-74
2022/12/04 00:43:35;;;;;;;;;;;0.60;99.90;;;;;;5062432;28;19921;-75
2022/12/04 00:46:01;;;;;;;;;;;0.60;99.90;;;;;;5061850;28;19935;-74
2022/12/04 00:48:26;;;;;;;;;;;0.60;99.90;;;;;;5061074;28;19944;-74
2022/12/04 00:50:53;;;;;;;;;;;0.60;99.90;;;;;;5064361;28;20399;-74
2022/12/04 00:53:18;;;;;;;;;;;0.60;99.90;;;;;;5063324;28;20055;-74
2022/12/04 00:55:44;;;;;;;;;;;0.60;99.90;;;;;;5064203;28;19978;-74
2022/12/04 00:58:10;;;;;;;;;;;0.60;99.90;;;;;;5063836;28;19924;-74
2022/12/04 01:00:36;;;;;;;;;;;0.60;99.90;;;;;;5064337;28;19920;-74
2022/12/04 01:03:02;;;;;;;;;;;0.50;99.90;;;;;;5063103;28;19921;-74
2022/12/04 01:05:27;;;;;;;;;;;0.60;99.90;;;;;;5063982;28;19975;-73
2022/12/04 01:07:53;;;;;;;;;;;0.50;99.90;;;;;;5061122;28;19990;-73
2022/12/04 01:10:19;;;;;;;;;;;0.50;99.90;;;;;;5060736;28;19921;-74
2022/12/04 01:12:47;;;;;;;;;;;0.40;99.90;;;;;;5067192;28;20327;-74
2022/12/04 01:15:13;;;;;;;;;;;1.00;99.90;;;;;;5058801;28;20015;-74
2022/12/04 01:17:38;;;;;;;;;;;0.40;99.90;;;;;;5058838;28;20008;-75
2022/12/04 01:20:04;;;;;;;;;;;0.30;99.90;;;;;;5065210;28;19920;-75
2022/12/04 01:22:29;;;;;;;;;;;0.30;99.90;;;;;;5062847;28;19921;-75
2022/12/04 01:24:55;;;;;;;;;;;0.30;99.90;;;;;;5064109;28;20401;-75
2022/12/04 01:27:21;;;;;;;;;;;0.30;99.90;;;;;;5060029;28;19920;-74
2022/12/04 01:29:46;;;;;;;;;;;0.30;99.90;;;;;;5061684;28;19920;-74
2022/12/04 01:32:12;;;;;;;;;;;0.30;99.90;;;;;;5063200;28;20019;-74
2022/12/04 01:34:37;;;;;;;;;;;0.30;99.90;;;;;;5059977;28;19922;-75
2022/12/04 01:37:03;;;;;;;;;;;0.30;99.90;;;;;;5062191;28;19981;-75
2022/12/04 01:39:28;;;;;;;;;;;0.20;99.90;;;;;;5061555;28;19920;-75
2022/12/04 01:41:54;;;;;;;;;;;0.30;99.90;;;;;;5060047;28;20292;-75
2022/12/04 01:44:24;;;;;;;;;;;0.30;99.90;;;;;;5064073;28;20009;-75
2022/12/04 01:46:54;;;;;;;;;;;0.20;99.90;;;;;;5059342;28;19927;-75
2022/12/04 01:49:41;;;;;;;;;;;0.20;99.90;;;;;;5060061;28;19921;-75
2022/12/04 01:52:14;;;;;;;;;;;0.10;99.90;;;;;;5061191;28;19935;-74
2022/12/04 01:54:42;;;;;;;;;;;0.20;99.90;;;;;;5060570;28;19974;-75
2022/12/04 01:57:11;;;;;;;;;;;0.10;99.90;;;;;;5061044;28;19928;-75
2022/12/04 01:59:51;;;;;;;;;;;0.10;99.90;;;;;;5062146;28;19917;-74
2022/12/04 02:02:19;;;;;;;;;;;0.10;99.90;;;;;;5059923;28;20307;-75
2022/12/04 02:04:45;;;;;;;;;;;0.90;99.90;;;;;;5059186;28;20054;-73
2022/12/04 02:07:11;;;;;;;;;;;0.00;99.90;;;;;;5060721;28;19970;-75
2022/12/04 02:09:44;;;;;;;;;;;0.00;99.90;;;;;;5061812;28;20374;-74
2022/12/04 02:12:18;;;;;;;;;;;0.00;99.90;;;;;;5061188;28;19921;-74
2022/12/04 02:14:47;;;;;;;;;;;-0.10;99.90;;;;;;5058902;28;19925;-73
2022/12/04 02:17:19;;;;;;;;;;;-0.10;99.90;;;;;;5059980;28;19921;-74
2022/12/04 02:19:56;;;;;;;;;;;-0.20;99.90;;;;;;5059806;28;19960;-74
2022/12/04 02:22:44;;;;;;;;;;;-0.20;99.90;;;;;;5061594;28;20263;-74
2022/12/04 02:25:12;;;;;;;;;;;-0.20;99.90;;;;;;5065911;28;19927;-74
2022/12/04 02:27:38;;;;;;;;;;;-0.30;99.90;;;;;;5060124;28;19925;-74
2022/12/04 02:30:05;;;;;;;;;;;-0.30;99.90;;;;;;5061552;28;20291;-74
2022/12/04 02:32:36;;;;;;;;;;;-0.30;99.90;;;;;;5059099;28;19921;-74
2022/12/04 02:35:07;;;;;;;;;;;-0.40;99.90;;;;;;5061596;28;20326;-74
2022/12/04 02:37:34;;;;;;;;;;;-0.40;99.90;;;;;;5060128;28;19943;-74
2022/12/04 02:40:00;;;;;;;;;;;-0.40;99.90;;;;;;5066708;28;20329;-75
2022/12/04 02:42:28;;;;;;;;;;;-0.40;99.90;;;;;;5065666;28;19920;-74
2022/12/04 02:44:56;;;;;;;;;;;-0.40;99.90;;;;;;5064513;28;20337;-75
2022/12/04 02:47:22;;;;;;;;;;;-0.40;99.90;;;;;;5065221;28;19928;-74
2022/12/04 02:49:51;;;;;;;;;;;-0.40;99.90;;;;;;5065939;28;19924;-74
2022/12/04 02:52:20;;;;;;;;;;;-0.40;99.90;;;;;;5063086;28;20356;-74
2022/12/04 02:54:48;;;;;;;;;;;-0.30;99.90;;;;;;5063848;28;19928;-74
2022/12/04 02:57:19;;;;;;;;;;;-0.30;99.90;;;;;;5066576;28;19916;-74
2022/12/04 02:59:46;;;;;;;;;;;-0.30;99.90;;;;;;5063418;28;20317;-74
2022/12/04 03:02:16;;;;;;;;;;;-0.20;99.90;;;;;;5064981;28;19990;-74
2022/12/04 03:04:44;;;;;;;;;;;-0.20;99.90;;;;;;5063200;28;19946;-74
2022/12/04 03:07:15;;;;;;;;;;;-0.20;99.90;;;;;;5066623;28;19935;-74
2022/12/04 03:09:43;;;;;;;;;;;-0.20;99.90;;;;;;5063266;28;20019;-74
2022/12/04 03:12:13;;;;;;;;;;;-0.20;99.90;;;;;;5066914;28;20011;-74
2022/12/04 03:14:41;;;;;;;;;;;-0.30;99.90;;;;;;5065934;28;20387;-74
2022/12/04 03:17:14;;;;;;;;;;;-0.30;99.90;;;;;;5066705;28;19965;-74
2022/12/04 03:19:47;;;;;;;;;;;-0.30;99.90;;;;;;5062696;28;19920;-74
2022/12/04 03:22:15;;;;;;;;;;;-0.30;99.90;;;;;;5063008;28;20039;-74
2022/12/04 03:24:44;;;;;;;;;;;1.70;99.90;;;;;;5064520;28;19949;-73
2022/12/04 03:27:11;;;;;;;;;;;-0.40;99.90;;;;;;5063134;28;20383;-74
2022/12/04 03:29:57;;;;;;;;;;;-1.00;99.90;;;;;;5064500;28;19924;-73
2022/12/04 03:32:43;;;;;;;;;;;-0.50;99.90;;;;;;5066012;28;19920;-74
2022/12/04 03:35:08;;;;;;;;;;;-0.50;99.90;;;;;;5048690;28;19920;-73
2022/12/04 03:37:44;;;;;;;;;;;-0.50;99.90;;;;;;5062480;28;20236;-74
2022/12/04 03:40:14;;;;;;;;;;;-0.50;99.90;;;;;;5064379;28;19953;-74
2022/12/04 03:42:45;;;;;;;;;;;-0.50;99.90;;;;;;5063544;28;20357;-73
2022/12/04 03:45:19;;;;;;;;;;;-0.40;99.90;;;;;;5064975;28;19939;-74
2022/12/04 03:47:50;;;;;;;;;;;0.30;99.90;;;;;;5062526;28;19990;-73
2022/12/04 03:50:23;;;;;;;;;;;-0.30;99.90;;;;;;5064041;28;20019;-74
2022/12/04 03:53:07;;;;;;;;;;;-0.30;99.90;;;;;;5062360;28;20393;-74
2022/12/04 03:55:32;;;;;;;;;;;-0.30;99.90;;;;;;5061070;28;20292;-73
2022/12/04 03:58:10;;;;;;;;;;;-0.20;99.90;;;;;;5066114;28;19920;-74
2022/12/04 04:00:38;;;;;;;;;;;-0.10;99.90;;;;;;5063224;28;20387;-74
2022/12/04 04:03:13;;;;;;;;;;;-0.10;99.90;;;;;;5064218;28;19927;-74
2022/12/04 04:05:41;;;;;;;;;;;-0.10;99.90;;;;;;5062906;28;20022;-74
2022/12/04 04:08:26;;;;;;;;;;;-0.10;99.90;;;;;;5063708;28;20433;-74
2022/12/04 04:10:54;;;;;;;;;;;0.00;99.90;;;;;;5061499;28;19924;-74
2022/12/04 04:24:43;;;;;;;;;;;0.20;99.90;;;;;;5061876;28;19921;-74
2022/12/04 04:27:08;;;;;;;;;;;0.20;99.90;;;;;;5050931;28;19979;-74
2022/12/04 04:29:34;;;;;;;;;;;0.20;99.90;;;;;;5062932;28;20478;-74
2022/12/04 04:32:06;;;;;;;;;;;0.20;99.90;;;;;;5062570;28;20426;-74
2022/12/04 04:34:31;;;;;;;;;;;0.30;99.90;;;;;;5063823;28;19924;-74
2022/12/04 04:37:00;;;;;;;;;;;0.30;99.90;;;;;;5062138;28;19927;-74
2022/12/04 04:39:30;;;;;;;;;;;0.30;99.90;;;;;;5065077;28;19965;-74
2022/12/04 04:42:03;;;;;;;;;;;0.30;99.90;;;;;;5061507;28;19921;-74
2022/12/04 04:44:38;;;;;;;;;;;0.30;99.90;;;;;;5063183;28;19924;-74
2022/12/04 04:47:05;;;;;;;;;;;0.30;99.90;;;;;;5062402;28;19978;-74
2022/12/04 04:49:34;;;;;;;;;;;0.30;99.90;;;;;;5063132;28;20007;-74
2022/12/04 04:52:00;;;;;;;;;;;0.40;99.90;;;;;;5063425;28;19960;-74
2022/12/04 04:54:27;;;;;;;;;;;0.40;99.90;;;;;;5062212;28;19916;-74
2022/12/04 04:56:52;;;;;;;;;;;0.40;99.90;;;;;;5064929;28;19920;-73
2022/12/04 04:59:18;;;;;;;;;;;2.70;99.90;;;;;;5060843;28;19974;-74
2022/12/04 05:01:44;;;;;;;;;;;0.40;99.90;;;;;;5063476;28;19917;-74
2022/12/04 05:04:09;;;;;;;;;;;0.30;99.90;;;;;;5062009;28;19928;-74
2022/12/04 05:06:35;;;;;;;;;;;0.40;99.90;;;;;;5062765;28;19943;-74
2022/12/04 05:09:01;;;;;;;;;;;0.40;99.90;;;;;;5061583;28;20383;-73
2022/12/04 05:11:26;;;;;;;;;;;0.40;99.90;;;;;;5060703;28;20011;-73
2022/12/04 05:13:52;;;;;;;;;;;0.30;99.90;;;;;;5062233;28;20302;-73
2022/12/04 05:16:17;;;;;;;;;;;0.30;99.90;;;;;;5061134;28;19926;-74
2022/12/04 05:19:52;;;;;;;;;;;0.30;99.90;;;;;;5064051;28;20011;-74
2022/12/04 05:21:31;;;;;;;;;;;0.30;99.90;;;;;;5061751;28;19920;-74
2022/12/04 05:23:57;;;;;;;;;;;0.30;99.90;;;;;;5062693;28;20386;-74
2022/12/04 05:26:22;;;;;;;;;;;0.30;99.90;;;;;;5061399;28;19917;-74
2022/12/04 05:28:48;;;;;;;;;;;0.30;99.90;;;;;;5062292;28;19927;-74
2022/12/04 05:31:16;;;;;;;;;;;0.30;99.90;;;;;;5064233;28;20036;-74
2022/12/04 05:33:42;;;;;;;;;;;0.60;99.90;;;;;;5060187;28;19921;-74
2022/12/04 05:36:09;;;;;;;;;;;0.70;99.90;;;;;;5062464;28;19969;-74
2022/12/04 05:38:35;;;;;;;;;;;0.30;99.90;;;;;;5060667;28;19927;-74
2022/12/04 05:41:01;;;;;;;;;;;0.30;99.90;;;;;;5061340;28;19925;-74
2022/12/04 05:43:27;;;;;;;;;;;0.30;99.90;;;;;;5062481;28;19924;-74
2022/12/04 05:45:52;;;;;;;;;;;0.30;99.90;;;;;;5061870;28;20283;-74
2022/12/04 05:48:18;;;;;;;;;;;0.30;99.90;;;;;;5061368;28;19992;-74
2022/12/04 05:50:43;;;;;;;;;;;0.30;99.90;;;;;;5059643;28;19928;-74
2022/12/04 05:53:09;;;;;;;;;;;0.30;99.90;;;;;;5064081;28;19928;-73
2022/12/04 05:55:35;;;;;;;;;;;0.90;99.90;;;;;;5059754;28;19920;-74
2022/12/04 05:58:01;;;;;;;;;;;0.40;99.90;;;;;;5063031;28;19935;-74
2022/12/04 06:00:27;;;;;;;;;;;0.30;99.90;;;;;;5062040;28;19927;-74
2022/12/04 06:02:52;;;;;;;;;;;0.30;99.90;;;;;;5061727;28;19920;-74
2022/12/04 06:05:18;;;;;;;;;;;0.30;99.90;;;;;;5062475;28;19921;-74
2022/12/04 06:07:43;;;;;;;;;;;0.30;99.90;;;;;;5059880;28;19921;-74
2022/12/04 06:10:09;;;;;;;;;;;0.30;99.90;;;;;;5062347;28;19994;-73
2022/12/04 06:12:34;;;;;;;;;;;0.30;99.90;;;;;;5059999;28;19921;-75
2022/12/04 06:15:00;;;;;;;;;;;0.30;99.90;;;;;;5069836;28;19946;-73
2022/12/04 06:17:25;;;;;;;;;;;0.30;99.90;;;;;;5067586;28;19920;-74
2022/12/04 06:19:52;;;;;;;;;;;0.30;99.90;;;;;;5068349;28;19925;-73
2022/12/04 06:22:17;;;;;;;;;;;0.30;99.90;;;;;;5068518;28;19920;-73
2022/12/04 06:24:43;;;;;;;;;;;0.30;99.90;;;;;;5067213;28;19927;-73
2022/12/04 06:27:08;;;;;;;;;;;0.30;99.90;;;;;;5068654;28;20007;-73
2022/12/04 06:29:34;;;;;;;;;;;0.30;99.90;;;;;;5066141;28;19967;-73
2022/12/04 06:31:59;;;;;;;;;;;0.30;99.90;;;;;;5068867;28;19920;-74
2022/12/04 06:34:25;;;;;;;;;;;0.30;99.90;;;;;;5068038;28;19916;-74
2022/12/04 06:36:51;;;;;;;;;;;0.40;99.90;;;;;;5067800;28;20388;-74
2022/12/04 06:39:16;;;;;;;;;;;0.40;99.90;;;;;;5066659;28;19916;-74
2022/12/04 06:41:42;;;;;;;;;;;0.40;99.90;;;;;;5067521;28;20285;-74
2022/12/04 06:44:07;;;;;;;;;;;0.40;99.90;;;;;;5068718;28;19920;-74
2022/12/04 06:46:33;;;;;;;;;;;0.40;99.90;;;;;;5069774;28;20447;-74
2022/12/04 06:48:59;;;;;;;;;;;0.40;99.90;;;;;;5065719;28;19920;-74
2022/12/04 06:51:29;;;;;;;;;;;0.40;99.90;;;;;;5066217;28;20360;-74
2022/12/04 06:53:54;;;;;;;;;;;0.40;99.90;;;;;;5066845;28;19920;-74
2022/12/04 06:56:22;;;;;;;;;;;0.40;99.90;;;;;;5073460;28;19934;-74
2022/12/04 06:58:48;;;;;;;;;;;0.40;99.90;;;;;;5067080;28;19939;-74
2022/12/04 07:01:15;;;;;;;;;;;0.40;99.90;;;;;;5067100;28;20002;-74
2022/12/04 07:03:41;;;;;;;;;;;0.40;99.90;;;;;;5068260;28;19935;-74
2022/12/04 07:06:14;;;;;;;;;;;0.40;99.90;;;;;;5066999;28;19935;-74
2022/12/04 07:08:40;;;;;;;;;;;0.40;99.90;;;;;;5067929;28;19927;-74
2022/12/04 07:11:06;;;;;;;;;;;0.20;99.90;;;;;;5067565;28;19920;-74
2022/12/04 07:13:31;;;;;;;;;;;0.40;99.90;;;;;;5066291;28;20300;-73
2022/12/04 07:16:01;;;;;;;;;;;0.40;99.90;;;;;;5069716;28;19920;-73
2022/12/04 07:18:27;;;;;;;;;;;0.50;99.90;;;;;;5070294;28;19920;-74
2022/12/04 07:20:52;;;;;;;;;;;0.50;99.90;;;;;;5065786;28;19920;-74
2022/12/04 07:23:18;;;;;;;;;;;0.50;99.90;;;;;;5068731;28;19924;-71
2022/12/04 07:25:43;;;;;;;;;;;0.40;99.90;;;;;;5064794;28;19970;-73
2022/12/04 07:28:09;;;;;;;;;;;0.50;99.90;;;;;;5061221;28;19947;-74
2022/12/04 07:30:36;;;;;;;;;;;2.20;99.90;;;;;;5064556;28;19920;-72
2022/12/04 07:33:04;;;;;;;;;;;0.40;99.90;;;;;;5063006;28;19921;-73
2022/12/04 07:35:49;;;;;;;;;;;0.50;99.90;;;;;;5062759;28;20605;-73
2022/12/04 07:38:15;;;;;;;;;;;0.50;99.90;;;;;;5061134;28;20330;-73
2022/12/04 07:40:40;;;;;;;;;;;0.50;99.90;;;;;;5058572;28;19925;-73
2022/12/04 07:43:06;;;;;;;;;;;0.50;99.90;;;;;;5063666;28;19928;-78
2022/12/04 07:45:31;;;;;;;;;;;0.50;99.90;;;;;;5064575;28;19921;-74
2022/12/04 07:47:57;;;;;;;;;;;0.50;99.90;;;;;;5063321;28;20367;-74
2022/12/04 07:50:22;;;;;;;;;;;0.60;99.90;;;;;;5064197;28;20011;-89
2022/12/04 07:52:48;;;;;;;;;;;0.60;99.90;;;;;;5068886;28;20007;-92
2022/12/04 07:55:13;;;;;;;;;;;0.60;99.90;;;;;;5067101;28;19920;-92
2022/12/04 07:57:39;;;;;;;;;;;0.60;99.90;;;;;;5067988;28;19927;-75
2022/12/04 08:00:05;;;;;;;;;;;0.60;99.90;;;;;;5064153;28;19920;-74
2022/12/04 08:02:30;;;;;;;;;;;0.70;99.90;;;;;;5061881;28;20437;-74
2022/12/04 08:04:56;;;;;;;;;;;0.70;99.90;;;;;;5068633;28;19920;-74
2022/12/04 08:07:21;;;;;;;;;;;0.60;99.90;;;;;;5061729;28;20287;-75
2022/12/04 08:09:47;;;;;;;;;;;0.60;99.90;;;;;;5061531;28;20026;-75
2022/12/04 08:12:15;;;;;;;;;;;0.60;99.90;;;;;;5062338;28;19927;-75
2022/12/04 08:14:41;;;;;;;;;;;0.70;99.90;;;;;;5065231;28;19924;-75
2022/12/04 08:17:09;;;;;;;;;;;0.70;99.90;;;;;;5064228;28;20604;-74
2022/12/04 08:19:35;;;;;;;;;;;0.80;99.90;;;;;;5062307;28;19920;-74
2022/12/04 08:22:00;;;;;;;;;;;0.80;99.90;;;;;;5062326;28;19925;-75
2022/12/04 08:24:26;;;;;;;;;;;0.80;99.90;;;;;;5064486;28;19927;-72
2022/12/04 08:26:51;;;;;;;;;;;0.80;99.90;;;;;;5062642;28;19920;-78
2022/12/04 08:29:17;;;;;;;;;;;0.80;99.90;;;;;;5062768;28;19944;-85
2022/12/04 08:31:42;;;;;;;;;;;0.80;99.90;;;;;;5064396;28;20390;-80
2022/12/04 08:34:08;;;;;;;;;;;0.80;99.90;;;;;;5062315;28;19920;-82
2022/12/04 08:36:33;;;;;;;;;;;0.80;99.90;;;;;;5063430;28;19928;-77
2022/12/04 08:38:59;;;;;;;;;;;0.80;99.90;;;;;;5065890;28;20446;-72
2022/12/04 08:41:25;;;;;;;;;;;0.80;99.90;;;;;;5061192;28;20368;-78
2022/12/04 08:43:53;;;;;;;;;;;0.90;99.90;;;;;;5070628;28;19920;-75
2022/12/04 08:46:19;;;;;;;;;;;0.00;99.90;;;;;;5061609;28;19921;-73
2022/12/04 08:48:45;;;;;;;;;;;0.90;99.90;;;;;;5063261;28;20327;-71
2022/12/04 08:51:12;;;;;;;;;;;0.90;99.90;;;;;;5055505;28;19977;-78
2022/12/04 08:53:38;;;;;;;;;;;0.90;99.90;;;;;;5064169;28;20007;-79
2022/12/04 08:56:03;;;;;;;;;;;0.90;99.90;;;;;;5064750;28;20011;-77
2022/12/04 08:58:29;;;;;;;;;;;0.90;99.90;;;;;;5060165;28;19920;-85
2022/12/04 09:00:54;;;;;;;;;;;1.00;99.90;;;;;;5063878;28;19974;-79
2022/12/04 09:03:21;;;;;;;;;;;0.90;99.90;;;;;;5062747;28;20439;-77
2022/12/04 09:05:47;;;;;;;;;;;0.90;99.90;;;;;;5060139;28;19928;-73
2022/12/04 09:08:16;;;;;;;;;;;1.00;99.90;;;;;;5062700;28;20371;-73
2022/12/04 09:10:42;;;;;;;;;;;1.00;99.90;;;;;;5062115;28;19978;-73
2022/12/04 09:13:07;;;;;;;;;;;1.00;99.90;;;;;;5064330;28;19921;-74
2022/12/04 09:15:33;;;;;;;;;;;1.00;99.90;;;;;;5062427;28;19917;-74
2022/12/04 09:17:59;;;;;;;;;;;1.00;99.90;;;;;;5064131;28;19966;-72
2022/12/04 09:20:26;;;;;;;;;;;1.10;99.90;;;;;;5061669;28;19920;-73
2022/12/04 09:22:51;;;;;;;;;;;1.10;99.90;;;;;;5062460;28;20333;-73
2022/12/04 09:25:17;;;;;;;;;;;1.10;99.90;;;;;;5063096;28;19921;-72
2022/12/04 09:27:43;;;;;;;;;;;1.10;99.90;;;;;;5061049;28;19916;-72
2022/12/04 09:30:10;;;;;;;;;;;1.10;99.90;;;;;;5067503;28;19928;-73
2022/12/04 09:32:36;;;;;;;;;;;1.10;99.90;;;;;;5058894;28;19924;-73
2022/12/04 09:35:01;;;;;;;;;;;1.10;99.90;;;;;;5064537;28;19924;-72
2022/12/04 09:37:27;;;;;;;;;;;1.20;99.90;;;;;;5062449;28;20429;-73
2022/12/04 09:39:52;;;;;;;;;;;1.20;99.90;;;;;;5060636;28;19920;-74
2022/12/04 09:42:24;;;;;;;;;;;1.20;99.90;;;;;;5061611;28;19921;-72
2022/12/04 09:44:57;;;;;;;;;;;1.20;99.90;;;;;;5062422;28;20007;-72
2022/12/04 09:47:28;;;;;;;;;;;1.20;99.90;;;;;;5059982;28;19920;-72
2022/12/04 09:49:57;;;;;;;;;;;1.30;99.90;;;;;;5061816;28;20318;-73
2022/12/04 09:52:26;;;;;;;;;;;1.30;99.90;;;;;;5064760;28;19999;-72
2022/12/04 09:54:52;;;;;;;;;;;1.30;99.90;;;;;;5058696;28;20330;-88
2022/12/04 09:57:24;;;;;;;;;;;1.30;99.90;;;;;;5061992;28;19921;-75
2022/12/04 09:59:50;;;;;;;;;;;1.40;99.90;;;;;;5062803;28;19966;-74
2022/12/04 10:02:34;;;;;;;;;;;1.40;99.90;;;;;;5061287;28;19975;-74
2022/12/04 10:05:00;;;;;;;;;;;1.40;99.90;;;;;;5064540;28;20364;-74
2022/12/04 10:07:46;;;;;;;;;;;1.70;99.90;;;;;;5059916;28;19926;-73
2022/12/04 10:10:16;;;;;;;;;;;1.50;99.90;;;;;;5023708;28;19946;-75
2022/12/04 10:12:50;;;;;;;;;;;1.50;99.90;;;;;;5060074;28;19928;-74
2022/12/04 10:15:19;;;;;;;;;;;1.50;99.90;;;;;;5066153;28;20314;-73
2022/12/04 10:18:03;;;;;;;;;;;1.50;99.90;;;;;;5060623;28;20254;-74
2022/12/04 10:20:47;;;;;;;;;;;1.60;99.90;;;;;;5063855;28;20371;-73
2022/12/04 10:23:15;;;;;;;;;;;1.60;99.90;;;;;;5063049;28;19963;-73
2022/12/04 10:25:42;;;;;;;;;;;1.60;99.90;;;;;;5065647;28;19924;-74
2022/12/04 10:28:19;;;;;;;;;;;1.60;99.90;;;;;;5061668;28;20011;-75
2022/12/04 10:30:46;;;;;;;;;;;1.60;99.90;;;;;;5061991;28;20074;-75
2022/12/04 10:33:41;;;;;;;;;;;1.70;99.90;;;;;;5059732;28;20391;-73
2022/12/04 10:36:12;;;;;;;;;;;1.70;99.90;;;;;;5045971;28;19921;-75
2022/12/04 10:38:52;;;;;;;;;;;1.70;99.90;;;;;;5062895;28;19968;-73
2022/12/04 10:41:33;;;;;;;;;;;1.80;99.90;;;;;;5062683;28;19960;-73
2022/12/04 10:43:59;;;;;;;;;;;1.80;99.90;;;;;;5061371;28;20004;-72
2022/12/04 10:46:32;;;;;;;;;;;1.90;99.90;;;;;;5060602;28;20015;-75
2022/12/04 10:48:58;;;;;;;;;;;1.90;99.90;;;;;;5062978;28;19920;-75
2022/12/04 10:51:24;;;;;;;;;;;1.90;99.90;;;;;;5062372;28;19920;-80
2022/12/04 10:53:50;;;;;;;;;;;2.00;99.90;;;;;;5063520;28;19925;-74
2022/12/04 10:56:18;;;;;;;;;;;2.10;99.90;;;;;;5060773;28;19984;-71
2022/12/04 10:58:56;;;;;;;;;;;2.00;99.90;;;;;;5059219;28;19920;-72
2022/12/04 11:01:22;;;;;;;;;;;2.10;99.90;;;;;;5059506;28;20277;-74
2022/12/04 11:03:54;;;;;;;;;;;2.10;99.90;;;;;;5061011;28;19966;-71
2022/12/04 11:06:22;;;;;;;;;;;2.20;99.90;;;;;;5062774;28;19931;-72
2022/12/04 11:08:49;;;;;;;;;;;2.20;99.90;;;;;;5066053;28;20359;-73
2022/12/04 11:11:21;;;;;;;;;;;2.30;99.90;;;;;;5064127;28;19920;-72
2022/12/04 11:13:46;;;;;;;;;;;2.30;99.90;;;;;;5062644;28;19928;-71
2022/12/04 11:16:31;;;;;;;;;;;2.40;99.90;;;;;;5066009;28;19920;-72
2022/12/04 11:18:56;;;;;;;;;;;2.40;99.90;;;;;;5064216;28;19929;-71
2022/12/04 11:21:24;;;;;;;;;;;2.50;99.90;;;;;;5069410;28;19973;-72
2022/12/04 11:23:51;;;;;;;;;;;2.70;99.90;;;;;;5065119;28;20432;-71
2022/12/04 11:26:30;;;;;;;;;;;2.60;99.90;;;;;;5062422;28;19959;-72
2022/12/04 11:28:57;;;;;;;;;;;2.60;99.90;;;;;;5063961;28;20053;-71
2022/12/04 11:31:22;;;;;;;;;;;2.60;99.90;;;;;;5063670;28;19928;-72
2022/12/04 11:33:51;;;;;;;;;;;2.60;99.90;;;;;;5064335;28;19920;-72
2022/12/04 11:36:19;;;;;;;;;;;2.60;99.90;;;;;;5063376;28;19921;-72
2022/12/04 11:38:45;;;;;;;;;;;2.70;99.90;;;;;;5065772;28;20004;-71
2022/12/04 11:41:22;;;;;;;;;;;2.60;99.90;;;;;;5065424;28;20407;-75
2022/12/04 11:43:49;;;;;;;;;;;2.60;99.90;;;;;;5061523;28;19928;-79
2022/12/04 11:46:18;;;;;;;;;;;2.70;99.90;;;;;;5065267;28;19920;-78
2022/12/04 11:48:44;;;;;;;;;;;2.70;99.90;;;;;;5060355;28;19920;-71
2022/12/04 11:51:25;;;;;;;;;;;2.70;99.90;;;;;;5061962;28;19974;-73
2022/12/04 11:54:03;;;;;;;;;;;2.80;99.90;;;;;;5060772;28;19975;-73
2022/12/04 11:56:31;;;;;;;;;;;2.80;99.90;;;;;;5061942;28;19927;-74
2022/12/04 11:58:57;;;;;;;;;;;2.80;99.90;;;;;;5064676;28;19920;-74
2022/12/04 12:01:41;;;;;;;;;;;2.80;99.90;;;;;;5064934;28;19927;-72
2022/12/04 12:04:22;;;;;;;;;;;2.80;99.90;;;;;;5064211;28;19931;-77
2022/12/04 12:07:17;;;;;;;;;;;2.80;99.90;;;;;;5063164;28;19921;-84
2022/12/04 12:09:46;;;;;;;;;;;2.80;99.90;;;;;;5065244;28;20362;-85
2022/12/04 12:12:33;;;;;;;;;;;2.80;99.90;;;;;;5064949;28;19931;-82
2022/12/04 12:15:16;;;;;;;;;;;2.80;99.90;;;;;;5060191;28;20023;-80
2022/12/04 12:17:46;;;;;;;;;;;2.70;99.90;;;;;;5050445;28;19967;-73
2022/12/04 12:20:24;;;;;;;;;;;2.80;99.90;;;;;;5060758;28;19960;-74
2022/12/04 12:22:55;;;;;;;;;;;2.70;99.90;;;;;;5056675;28;19963;-77
2022/12/04 12:25:25;;;;;;;;;;;2.80;99.90;;;;;;5063023;28;19920;-80
2022/12/04 12:27:54;;;;;;;;;;;2.80;99.90;;;;;;5063202;28;20500;-74
2022/12/04 12:30:21;;;;;;;;;;;2.80;99.90;;;;;;5059390;28;20087;-74
2022/12/04 12:33:02;;;;;;;;;;;2.70;99.90;;;;;;5060217;28;19946;-75
2022/12/04 12:35:40;;;;;;;;;;;2.70;99.90;;;;;;5058825;28;19917;-82
2022/12/04 12:38:09;;;;;;;;;;;2.70;99.90;;;;;;5065156;28;19930;-73
2022/12/04 12:40:47;;;;;;;;;;;2.70;99.90;;;;;;5062395;28;19916;-71
2022/12/04 12:43:16;;;;;;;;;;;2.70;99.90;;;;;;5061718;28;20394;-84
2022/12/04 12:45:44;;;;;;;;;;;2.70;99.90;;;;;;5062440;28;19924;-73
2022/12/04 12:48:30;;;;;;;;;;;3.40;99.90;;;;;;5059312;28;19920;-80
2022/12/04 12:50:59;;;;;;;;;;;2.70;99.90;;;;;;5033124;28;19928;-73
2022/12/04 12:53:28;;;;;;;;;;;2.70;99.90;;;;;;5062784;28;19974;-76
2022/12/04 12:55:56;;;;;;;;;;;2.70;99.90;;;;;;5061489;28;20381;-76
2022/12/04 12:58:40;;;;;;;;;;;2.70;99.90;;;;;;5058465;28;20374;-80
2022/12/04 13:01:14;;;;;;;;;;;2.70;99.90;;;;;;5062251;28;20397;-79
2022/12/04 13:04:04;;;;;;;;;;;2.60;99.90;;;;;;5057251;28;20000;-76
2022/12/04 13:06:35;;;;;;;;;;;2.70;99.90;;;;;;5061437;28;19950;-81
2022/12/04 13:09:20;;;;;;;;;;;2.70;99.90;;;;;;5058709;28;20398;-77
2022/12/04 13:11:48;;;;;;;;;;;2.60;99.90;;;;;;5058596;28;19921;-73
2022/12/04 13:14:14;;;;;;;;;;;2.70;99.90;;;;;;5062770;28;19924;-73
2022/12/04 13:16:47;;;;;;;;;;;2.70;99.90;;;;;;5062012;28;19920;-81
2022/12/04 13:19:22;;;;;;;;;;;2.70;99.90;;;;;;5061561;28;19920;-74
2022/12/04 13:22:02;;;;;;;;;;;2.70;99.90;;;;;;5063084;28;19928;-76
2022/12/04 13:24:36;;;;;;;;;;;2.70;99.90;;;;;;5061589;28;19924;-74
2022/12/04 13:27:25;;;;;;;;;;;2.70;99.90;;;;;;5059190;28;19924;-74
2022/12/04 13:29:50;;;;;;;;;;;2.70;99.90;;;;;;5061807;28;19968;-75
2022/12/04 13:32:36;;;;;;;;;;;2.80;99.90;;;;;;5059820;28;19971;-75
2022/12/04 13:35:13;;;;;;;;;;;2.70;99.90;;;;;;5061206;28;19924;-87
2022/12/04 13:37:42;;;;;;;;;;;2.80;99.90;;;;;;5066156;28;19966;-73
2022/12/04 13:40:13;;;;;;;;;;;2.80;99.90;;;;;;5064091;28;19917;-80
2022/12/04 13:42:39;;;;;;;;;;;2.80;99.90;;;;;;5064173;28;19920;-72
2022/12/04 13:45:08;;;;;;;;;;;2.70;99.90;;;;;;5061043;28;19938;-76
2022/12/04 13:47:34;;;;;;;;;;;2.70;99.90;;;;;;5061574;28;19991;-78
2022/12/04 13:50:18;;;;;;;;;;;2.70;99.90;;;;;;5057821;28;19924;-76
2022/12/04 13:52:46;;;;;;;;;;;2.70;99.90;;;;;;5056100;28;19932;-74
2022/12/04 13:55:30;;;;;;;;;;;2.70;99.90;;;;;;5057817;28;19937;-82
2022/12/04 13:58:00;;;;;;;;;;;2.80;99.90;;;;;;5060338;28;19921;-80
2022/12/04 14:00:33;;;;;;;;;;;2.80;99.90;;;;;;5059774;28;20261;-82
2022/12/04 14:03:03;;;;;;;;;;;2.70;99.90;;;;;;5062672;28;19935;-86
2022/12/04 14:05:40;;;;;;;;;;;2.80;99.90;;;;;;5062052;28;19920;-76
2022/12/04 14:08:25;;;;;;;;;;;2.90;99.90;;;;;;5057048;28;20035;-76
2022/12/04 14:11:02;;;;;;;;;;;2.80;99.90;;;;;;5062378;28;19924;-79
2022/12/04 14:13:34;;;;;;;;;;;2.80;99.90;;;;;;5054157;28;19928;-83
2022/12/04 14:16:04;;;;;;;;;;;2.80;99.90;;;;;;5062519;28;19920;-85
2022/12/04 14:18:30;;;;;;;;;;;2.80;99.90;;;;;;5063544;28;19976;-85
2022/12/04 14:20:57;;;;;;;;;;;2.80;99.90;;;;;;5058315;28;19979;-82
2022/12/04 14:23:25;;;;;;;;;;;2.80;99.90;;;;;;5058484;28;20007;-80
2022/12/04 14:25:55;;;;;;;;;;;2.90;99.90;;;;;;5062205;28;19920;-78
2022/12/04 14:28:30;;;;;;;;;;;2.90;99.90;;;;;;5061589;28;19924;-76
2022/12/04 14:31:00;;;;;;;;;;;2.90;99.90;;;;;;5059554;28;20356;-91
2022/12/04 14:33:29;;;;;;;;;;;3.00;99.90;;;;;;5061212;28;19920;-78
2022/12/04 14:36:18;;;;;;;;;;;3.00;99.90;;;;;;5060919;28;19921;-79
2022/12/04 14:38:46;;;;;;;;;;;3.00;99.90;;;;;;5052465;28;19924;-80
2022/12/04 14:41:11;;;;;;;;;;;3.00;99.90;;;;;;5068387;28;19925;-80
2022/12/04 14:43:38;;;;;;;;;;;3.00;99.90;;;;;;5079725;28;19956;-79
2022/12/04 14:46:16;;;;;;;;;;;3.00;99.90;;;;;;5062076;28;19967;-80
2022/12/04 14:48:51;;;;;;;;;;;3.10;99.90;;;;;;5061815;28;19931;-78
2022/12/04 14:51:35;;;;;;;;;;;3.00;99.90;;;;;;5062209;28;19927;-78
2022/12/04 14:54:04;;;;;;;;;;;3.10;99.90;;;;;;5063942;28;19939;-78